createdAt,value
2022-08-26T00:00:47.955Z,4.20
2022-08-26T00:01:57.134Z,6.70
2022-08-26T00:03:06.054Z,5.10
2022-08-26T00:04:15.184Z,6.80
2022-08-26T00:05:22.985Z,6.10
2022-08-26T00:06:32.828Z,5.60
2022-08-26T00:07:40.602Z,15.50
2022-08-26T00:08:54.651Z,5.80
2022-08-26T00:10:02.960Z,5.70
2022-08-26T00:11:10.380Z,4.70
2022-08-26T00:12:21.586Z,5.30
2022-08-26T00:13:49.453Z,6.50
2022-08-26T00:14:56.866Z,4.00
2022-08-26T00:16:05.381Z,5.60
2022-08-26T00:17:14.190Z,6.30
2022-08-26T00:18:24.167Z,6.10
2022-08-26T00:19:36.476Z,3.60
2022-08-26T00:20:46.196Z,5.70
2022-08-26T00:21:57.098Z,5.40
2022-08-26T00:23:06.833Z,3.80
2022-08-26T00:24:15.060Z,6.70
2022-08-26T00:25:23.598Z,8.60
2022-08-26T00:26:32.139Z,4.40
2022-08-26T00:27:41.193Z,3.50
2022-08-26T00:28:49.504Z,3.60
2022-08-26T00:29:57.591Z,4.40
2022-08-26T00:31:06.225Z,2.90
2022-08-26T00:32:15.482Z,3.90
2022-08-26T00:34:36.052Z,9.50
2022-08-26T00:35:47.038Z,4.00
2022-08-26T00:36:54.816Z,5.50
2022-08-26T00:38:03.072Z,4.30
2022-08-26T00:39:12.563Z,4.30
2022-08-26T00:40:24.391Z,8.40
2022-08-26T00:41:36.938Z,3.60
2022-08-26T00:42:46.015Z,5.30
2022-08-26T00:43:54.659Z,4.10
2022-08-26T00:45:10.259Z,3.70
2022-08-26T00:46:30.904Z,4.30
2022-08-26T00:47:47.501Z,3.70
2022-08-26T00:49:01.728Z,9.20
2022-08-26T00:50:14.858Z,8.80
2022-08-26T00:51:29.766Z,6.50
2022-08-26T00:52:40.103Z,4.50
2022-08-26T00:54:14.466Z,7.60
2022-08-26T00:55:43.085Z,3.50
2022-08-26T00:57:02.889Z,3.60
2022-08-26T00:58:12.491Z,4.50
2022-08-26T00:59:22.715Z,3.20
2022-08-26T01:01:42.012Z,10.70
2022-08-26T01:02:50.291Z,3.00
2022-08-26T01:03:58.047Z,5.50
2022-08-26T01:05:08.230Z,5.20
2022-08-26T01:06:19.169Z,4.50
2022-08-26T01:07:30.038Z,6.60
2022-08-26T01:08:39.016Z,5.20
2022-08-26T01:09:46.460Z,5.50
2022-08-26T01:10:56.735Z,7.10
2022-08-26T01:12:05.032Z,6.90
2022-08-26T01:13:12.773Z,4.00
2022-08-26T01:14:22.007Z,5.90
2022-08-26T01:15:45.518Z,6.20
2022-08-26T01:16:56.436Z,5.20
2022-08-26T01:18:07.560Z,5.00
2022-08-26T01:19:37.671Z,4.20
2022-08-26T01:21:07.580Z,8.70
2022-08-26T01:22:26.596Z,5.50
2022-08-26T01:23:39.752Z,6.00
2022-08-26T01:24:49.800Z,6.20
2022-08-26T01:25:59.695Z,6.70
2022-08-26T01:27:10.433Z,7.50
2022-08-26T01:28:26.059Z,6.70
2022-08-26T01:29:36.496Z,8.00
2022-08-26T01:30:44.352Z,4.70
2022-08-26T01:31:56.426Z,6.90
2022-08-26T01:33:04.739Z,7.10
2022-08-26T01:34:20.341Z,4.80
2022-08-26T01:35:31.647Z,4.30
2022-08-26T01:36:40.663Z,7.40
2022-08-26T01:37:50.533Z,5.70
2022-08-26T01:39:02.236Z,4.10
2022-08-26T01:40:17.975Z,4.90
2022-08-26T01:41:29.170Z,5.90
2022-08-26T01:42:37.257Z,4.80
2022-08-26T01:43:48.512Z,4.50
2022-08-26T01:45:00.945Z,7.20
2022-08-26T01:46:09.159Z,4.30
2022-08-26T01:47:17.801Z,6.00
2022-08-26T01:48:30.407Z,6.20
2022-08-26T01:49:38.096Z,3.60
2022-08-26T01:50:45.397Z,4.20
2022-08-26T01:51:53.981Z,5.50
2022-08-26T01:53:05.306Z,5.50
2022-08-26T01:54:13.829Z,6.80
2022-08-26T01:55:32.146Z,7.00
2022-08-26T01:56:43.277Z,5.80
2022-08-26T01:57:56.253Z,5.70
2022-08-26T01:59:06.783Z,6.20
2022-08-26T02:00:16.227Z,7.50
2022-08-26T02:01:24.832Z,8.80
2022-08-26T02:02:37.467Z,9.40
2022-08-26T02:03:53.947Z,11.90
2022-08-26T02:05:04.146Z,5.00
2022-08-26T02:06:12.091Z,6.40
2022-08-26T02:07:26.653Z,4.60
2022-08-26T02:09:58.219Z,8.80
2022-08-26T02:11:05.977Z,5.40
2022-08-26T02:12:14.642Z,9.20
2022-08-26T02:13:23.661Z,9.30
2022-08-26T02:14:43.740Z,9.80
2022-08-26T02:15:52.848Z,7.30
2022-08-26T02:17:00.098Z,7.60
2022-08-26T02:18:09.558Z,6.30
2022-08-26T02:19:32.367Z,6.90
2022-08-26T02:20:40.327Z,4.40
2022-08-26T02:21:51.275Z,8.60
2022-08-26T02:22:59.762Z,10.90
2022-08-26T02:24:12.775Z,7.70
2022-08-26T02:25:42.781Z,5.20
2022-08-26T02:26:52.523Z,8.10
2022-08-26T02:28:00.051Z,9.80
2022-08-26T02:29:19.541Z,16.40
2022-08-26T02:30:33.312Z,9.40
2022-08-26T02:31:42.368Z,4.90
2022-08-26T02:32:52.668Z,7.70
2022-08-26T02:34:21.576Z,9.40
2022-08-26T02:35:29.986Z,10.80
2022-08-26T02:36:38.179Z,5.80
2022-08-26T02:37:52.441Z,5.10
2022-08-26T02:39:01.572Z,6.80
2022-08-26T02:40:13.950Z,11.50
2022-08-26T02:41:27.847Z,6.80
2022-08-26T02:42:40.124Z,8.60
2022-08-26T02:43:51.776Z,7.10
2022-08-26T02:45:01.725Z,6.20
2022-08-26T02:46:11.634Z,8.30
2022-08-26T02:47:35.448Z,8.40
2022-08-26T02:48:45.852Z,10.30
2022-08-26T02:49:56.883Z,6.30
2022-08-26T02:51:08.181Z,6.10
2022-08-26T02:52:15.947Z,10.40
2022-08-26T02:53:28.260Z,7.50
2022-08-26T02:54:41.127Z,8.50
2022-08-26T02:55:51.004Z,13.30
2022-08-26T02:56:58.442Z,6.10
2022-08-26T02:58:07.993Z,9.30
2022-08-26T02:59:16.935Z,5.20
2022-08-26T03:00:26.543Z,10.60
2022-08-26T03:01:37.985Z,11.40
2022-08-26T03:02:46.371Z,6.80
2022-08-26T03:03:54.331Z,17.70
2022-08-26T03:05:02.378Z,10.00
2022-08-26T03:06:11.037Z,9.30
2022-08-26T03:07:19.417Z,6.80
2022-08-26T03:08:30.238Z,5.50
2022-08-26T03:09:38.917Z,5.30
2022-08-26T03:10:50.799Z,4.60
2022-08-26T03:11:58.294Z,6.70
2022-08-26T03:13:07.865Z,7.10
2022-08-26T03:14:18.812Z,5.10
2022-08-26T03:15:28.214Z,5.60
2022-08-26T03:16:43.114Z,8.50
2022-08-26T03:17:50.870Z,7.70
2022-08-26T03:18:58.731Z,5.60
2022-08-26T03:20:11.169Z,8.50
2022-08-26T03:21:26.729Z,7.20
2022-08-26T03:22:35.045Z,8.40
2022-08-26T03:23:42.764Z,8.90
2022-08-26T03:24:53.869Z,9.00
2022-08-26T03:26:01.466Z,8.40
2022-08-26T03:27:09.336Z,4.90
2022-08-26T03:28:16.715Z,7.40
2022-08-26T03:29:50.506Z,5.50
2022-08-26T03:30:59.096Z,5.30
2022-08-26T03:32:07.114Z,4.90
2022-08-26T03:33:14.640Z,8.10
2022-08-26T03:34:24.711Z,8.60
2022-08-26T03:35:45.041Z,5.60
2022-08-26T03:36:56.461Z,11.10
2022-08-26T03:38:05.171Z,7.50
2022-08-26T03:39:13.913Z,6.60
2022-08-26T03:40:22.297Z,7.10
2022-08-26T03:41:34.526Z,5.30
2022-08-26T03:42:45.358Z,10.90
2022-08-26T03:43:53.449Z,8.00
2022-08-26T03:45:02.428Z,6.90
2022-08-26T03:47:23.351Z,17.50
2022-08-26T03:48:32.213Z,13.80
2022-08-26T03:49:43.142Z,16.10
2022-08-26T03:50:51.506Z,11.30
2022-08-26T03:51:59.696Z,5.40
2022-08-26T03:53:12.694Z,6.50
2022-08-26T03:54:24.187Z,9.80
2022-08-26T03:55:35.248Z,6.40
2022-08-26T03:56:46.431Z,8.30
2022-08-26T03:57:54.736Z,7.00
2022-08-26T03:59:03.860Z,6.40
2022-08-26T04:00:18.536Z,5.20
2022-08-26T04:01:30.468Z,8.10
2022-08-26T04:02:40.295Z,8.10
2022-08-26T04:04:00.895Z,5.40
2022-08-26T04:05:13.311Z,9.20
2022-08-26T04:06:21.048Z,5.90
2022-08-26T04:07:32.066Z,7.20
2022-08-26T04:08:41.318Z,7.30
2022-08-26T04:09:52.016Z,9.70
2022-08-26T04:11:02.642Z,8.10
2022-08-26T04:12:12.425Z,9.00
2022-08-26T04:14:33.529Z,7.50
2022-08-26T04:15:41.568Z,9.80
2022-08-26T04:16:57.908Z,8.10
2022-08-26T04:18:06.428Z,7.40
2022-08-26T04:19:17.324Z,7.80
2022-08-26T04:20:29.348Z,6.70
2022-08-26T04:21:40.020Z,9.80
2022-08-26T04:22:51.153Z,5.10
2022-08-26T04:24:00.305Z,5.70
2022-08-26T04:25:11.733Z,8.20
2022-08-26T04:26:23.001Z,12.30
2022-08-26T04:27:31.800Z,6.90
2022-08-26T04:28:41.959Z,7.90
2022-08-26T04:29:53.578Z,10.80
2022-08-26T04:31:05.117Z,9.30
2022-08-26T04:32:13.473Z,6.80
2022-08-26T04:33:32.562Z,5.80
2022-08-26T04:34:50.634Z,8.60
2022-08-26T04:36:06.681Z,11.90
2022-08-26T04:37:14.704Z,8.00
2022-08-26T04:38:25.752Z,6.60
2022-08-26T04:39:39.417Z,7.60
2022-08-26T04:40:48.147Z,6.60
2022-08-26T04:41:57.713Z,7.30
2022-08-26T04:43:09.143Z,6.10
2022-08-26T04:44:18.777Z,8.50
2022-08-26T04:45:31.115Z,10.30
2022-08-26T04:46:43.656Z,11.20
2022-08-26T04:47:54.589Z,9.60
2022-08-26T04:49:02.035Z,8.40
2022-08-26T04:50:10.952Z,7.90
2022-08-26T04:51:18.445Z,11.60
2022-08-26T04:52:28.118Z,9.40
2022-08-26T04:53:37.253Z,11.90
2022-08-26T04:55:55.721Z,9.60
2022-08-26T04:57:06.138Z,12.10
2022-08-26T04:58:18.291Z,10.70
2022-08-26T04:59:26.750Z,11.80
2022-08-26T05:00:38.850Z,8.00
2022-08-26T05:01:51.790Z,12.40
2022-08-26T05:03:01.914Z,14.60
2022-08-26T05:04:09.407Z,11.40
2022-08-26T05:05:17.070Z,12.20
2022-08-26T05:06:29.902Z,10.10
2022-08-26T05:07:47.350Z,9.90
2022-08-26T05:09:01.717Z,8.10
2022-08-26T05:10:11.653Z,8.50
2022-08-26T05:11:20.378Z,8.10
2022-08-26T05:12:33.559Z,8.50
2022-08-26T05:13:42.082Z,10.20
2022-08-26T05:14:50.596Z,9.20
2022-08-26T05:16:04.298Z,10.30
2022-08-26T05:17:15.576Z,8.80
2022-08-26T05:18:26.626Z,7.00
2022-08-26T05:19:37.103Z,9.70
2022-08-26T05:20:54.742Z,9.20
2022-08-26T05:22:02.938Z,12.20
2022-08-26T05:23:11.357Z,9.50
2022-08-26T05:24:20.927Z,7.20
2022-08-26T05:25:30.938Z,9.60
2022-08-26T05:26:39.396Z,9.20
2022-08-26T05:27:47.846Z,9.00
2022-08-26T05:28:57.635Z,9.70
2022-08-26T05:30:08.409Z,9.20
2022-08-26T05:31:24.897Z,12.00
2022-08-26T05:32:34.227Z,7.90
2022-08-26T05:33:45.374Z,11.70
2022-08-26T05:34:58.644Z,13.40
2022-08-26T05:36:11.638Z,11.90
2022-08-26T05:37:23.224Z,8.10
2022-08-26T05:38:34.713Z,7.90
2022-08-26T05:39:43.630Z,13.10
2022-08-26T05:41:01.599Z,11.90
2022-08-26T05:42:11.751Z,11.20
2022-08-26T05:43:20.757Z,13.00
2022-08-26T05:44:35.897Z,8.90
2022-08-26T05:46:07.781Z,12.20
2022-08-26T05:47:15.735Z,13.40
2022-08-26T05:48:24.263Z,9.70
2022-08-26T05:49:33.783Z,15.40
2022-08-26T05:50:50.621Z,10.30
2022-08-26T05:51:58.253Z,11.40
2022-08-26T05:53:06.463Z,13.10
2022-08-26T05:54:21.687Z,12.30
2022-08-26T05:55:31.943Z,12.10
2022-08-26T05:56:43.098Z,10.10
2022-08-26T05:57:53.068Z,11.80
2022-08-26T05:59:00.689Z,13.30
2022-08-26T06:00:11.717Z,12.80
2022-08-26T06:01:25.162Z,10.70
2022-08-26T06:02:34.398Z,12.60
2022-08-26T06:03:44.482Z,10.00
2022-08-26T06:04:54.745Z,13.80
2022-08-26T06:06:10.646Z,12.40
2022-08-26T06:07:18.705Z,8.50
2022-08-26T06:08:30.367Z,16.80
2022-08-26T06:09:41.789Z,19.30
2022-08-26T06:10:56.771Z,9.80
2022-08-26T06:12:04.792Z,10.20
2022-08-26T06:13:13.193Z,10.30
2022-08-26T06:14:25.481Z,10.50
2022-08-26T06:15:43.961Z,13.60
2022-08-26T06:16:55.215Z,13.50
2022-08-26T06:18:04.617Z,13.80
2022-08-26T06:19:16.706Z,11.50
2022-08-26T06:20:26.403Z,9.80
2022-08-26T06:21:37.090Z,16.60
2022-08-26T06:23:07.436Z,12.30
2022-08-26T06:24:35.831Z,13.80
2022-08-26T06:25:44.878Z,12.60
2022-08-26T06:26:54.218Z,13.40
2022-08-26T06:28:01.963Z,14.20
2022-08-26T06:29:11.998Z,11.60
2022-08-26T06:30:26.095Z,15.10
2022-08-26T06:31:40.095Z,11.00
2022-08-26T06:32:53.939Z,10.40
2022-08-26T06:34:02.051Z,13.20
2022-08-26T06:35:11.897Z,11.30
2022-08-26T06:36:24.437Z,13.70
2022-08-26T06:37:34.039Z,14.50
2022-08-26T06:38:43.366Z,12.60
2022-08-26T06:39:51.577Z,8.80
2022-08-26T06:41:02.259Z,11.20
2022-08-26T06:42:12.081Z,14.60
2022-08-26T06:43:24.972Z,15.80
2022-08-26T06:44:32.657Z,14.00
2022-08-26T06:45:41.397Z,18.70
2022-08-26T06:46:50.508Z,15.10
2022-08-26T06:47:58.452Z,10.60
2022-08-26T06:49:05.551Z,15.40
2022-08-26T06:50:12.958Z,14.00
2022-08-26T06:51:23.659Z,19.80
2022-08-26T06:52:30.840Z,13.80
2022-08-26T06:53:41.192Z,14.40
2022-08-26T06:54:48.483Z,16.30
2022-08-26T06:55:59.643Z,11.30
2022-08-26T06:57:10.283Z,15.50
2022-08-26T06:58:18.244Z,14.80
2022-08-26T06:59:27.610Z,12.50
2022-08-26T07:00:38.821Z,15.60
2022-08-26T07:01:49.968Z,15.40
2022-08-26T07:02:57.169Z,11.60
2022-08-26T07:04:10.538Z,12.90
2022-08-26T07:05:21.916Z,12.60
2022-08-26T07:06:33.357Z,12.70
2022-08-26T07:07:40.724Z,12.90
2022-08-26T07:08:54.595Z,15.00
2022-08-26T07:10:01.555Z,13.60
2022-08-26T07:11:11.816Z,11.30
2022-08-26T07:12:20.907Z,13.70
2022-08-26T07:13:31.035Z,12.40
2022-08-26T07:14:41.369Z,18.80
2022-08-26T07:16:03.164Z,14.50
2022-08-26T07:17:14.316Z,13.60
2022-08-26T07:18:24.649Z,14.50
2022-08-26T07:19:36.341Z,16.60
2022-08-26T07:20:44.853Z,15.50
2022-08-26T07:21:53.021Z,15.10
2022-08-26T07:23:04.635Z,12.10
2022-08-26T07:24:16.027Z,18.50
2022-08-26T07:25:25.060Z,15.70
2022-08-26T07:26:33.590Z,14.30
2022-08-26T07:29:03.932Z,14.50
2022-08-26T07:30:11.863Z,18.70
2022-08-26T07:31:24.191Z,13.20
2022-08-26T07:32:31.662Z,13.50
2022-08-26T07:33:40.090Z,16.20
2022-08-26T07:34:51.124Z,14.10
2022-08-26T07:35:58.387Z,15.10
2022-08-26T07:37:08.737Z,15.10
2022-08-26T07:38:17.860Z,12.90
2022-08-26T07:39:25.336Z,15.20
2022-08-26T07:40:32.681Z,16.90
2022-08-26T07:41:42.021Z,15.00
2022-08-26T07:42:53.523Z,12.60
2022-08-26T07:44:01.366Z,17.80
2022-08-26T07:45:11.601Z,14.00
2022-08-26T07:46:27.242Z,14.30
2022-08-26T07:47:40.377Z,15.40
2022-08-26T07:48:49.872Z,14.60
2022-08-26T07:49:57.947Z,15.60
2022-08-26T07:51:05.720Z,11.90
2022-08-26T07:52:15.326Z,15.50
2022-08-26T07:53:24.162Z,16.80
2022-08-26T07:54:32.827Z,13.50
2022-08-26T07:55:40.983Z,12.20
2022-08-26T07:56:51.315Z,17.60
2022-08-26T07:57:59.089Z,12.80
2022-08-26T07:59:13.527Z,13.40
2022-08-26T08:00:23.285Z,15.10
2022-08-26T08:01:35.107Z,18.10
2022-08-26T08:02:48.405Z,13.70
2022-08-26T08:03:58.276Z,13.20
2022-08-26T08:05:08.298Z,17.70
2022-08-26T08:06:15.522Z,13.40
2022-08-26T08:07:38.727Z,16.90
2022-08-26T08:08:52.964Z,14.60
2022-08-26T08:10:09.757Z,15.40
2022-08-26T08:11:24.568Z,15.90
2022-08-26T08:12:31.833Z,12.90
2022-08-26T08:13:42.451Z,13.30
2022-08-26T08:14:50.133Z,14.90
2022-08-26T08:15:57.957Z,17.50
2022-08-26T08:17:08.548Z,11.80
2022-08-26T08:18:17.773Z,18.60
2022-08-26T08:19:36.572Z,16.30
2022-08-26T08:20:59.123Z,18.80
2022-08-26T08:22:17.194Z,14.30
2022-08-26T08:23:25.868Z,13.60
2022-08-26T08:24:35.749Z,13.20
2022-08-26T08:25:43.010Z,13.40
2022-08-26T08:26:50.266Z,14.50
2022-08-26T08:27:57.804Z,14.40
2022-08-26T08:29:04.874Z,14.40
2022-08-26T08:30:14.813Z,14.00
2022-08-26T08:33:06.391Z,18.00
2022-08-26T08:34:15.067Z,14.30
2022-08-26T08:35:27.470Z,17.00
2022-08-26T08:36:35.972Z,16.20
2022-08-26T08:38:51.795Z,18.70
2022-08-26T08:40:00.257Z,17.30
2022-08-26T08:41:08.115Z,20.30
2022-08-26T08:42:29.266Z,17.50
2022-08-26T08:43:45.379Z,13.50
2022-08-26T08:44:53.573Z,15.80
2022-08-26T08:46:06.458Z,13.30
2022-08-26T08:47:39.698Z,14.70
2022-08-26T08:48:50.590Z,14.60
2022-08-26T08:50:01.442Z,17.70
2022-08-26T08:51:19.242Z,14.20
2022-08-26T08:52:34.162Z,13.00
2022-08-26T08:53:45.681Z,12.60
2022-08-26T08:54:53.225Z,15.00
2022-08-26T08:56:22.102Z,15.40
2022-08-26T08:57:47.121Z,17.80
2022-08-26T08:59:14.582Z,13.40
2022-08-26T09:00:30.396Z,18.50
2022-08-26T09:01:45.559Z,15.30
2022-08-26T09:03:08.568Z,16.70
2022-08-26T09:04:49.991Z,15.70
2022-08-26T09:06:00.120Z,15.80
2022-08-26T09:07:11.029Z,14.00
2022-08-26T09:08:24.424Z,14.10
2022-08-26T09:09:59.535Z,15.20
2022-08-26T09:11:07.115Z,14.70
2022-08-26T09:12:20.345Z,15.80
2022-08-26T09:13:27.740Z,15.80
2022-08-26T09:14:35.339Z,22.00
2022-08-26T09:16:03.042Z,12.70
2022-08-26T09:17:32.773Z,18.40
2022-08-26T09:19:06.840Z,16.10
2022-08-26T09:20:30.399Z,17.10
2022-08-26T09:21:38.397Z,16.20
2022-08-26T09:22:46.832Z,17.00
2022-08-26T09:23:54.782Z,17.00
2022-08-26T09:25:07.872Z,14.60
2022-08-26T09:26:48.113Z,14.40
2022-08-26T09:27:55.531Z,19.00
2022-08-26T09:29:03.898Z,15.80
2022-08-26T09:30:12.999Z,15.70
2022-08-26T09:31:33.893Z,19.90
2022-08-26T09:32:55.940Z,15.20
2022-08-26T09:34:27.080Z,16.70
2022-08-26T09:35:36.964Z,16.50
2022-08-26T09:36:47.544Z,16.30
2022-08-26T09:37:55.486Z,15.80
2022-08-26T09:39:04.766Z,17.30
2022-08-26T09:40:24.642Z,111.20
2022-08-26T09:41:38.165Z,19.00
2022-08-26T09:42:46.584Z,19.30
2022-08-26T09:44:14.633Z,24.20
2022-08-26T09:45:30.009Z,14.70
2022-08-26T09:46:37.725Z,13.40
2022-08-26T09:47:55.617Z,18.90
2022-08-26T09:49:35.518Z,14.70
2022-08-26T09:51:00.746Z,21.40
2022-08-26T09:52:25.576Z,17.40
2022-08-26T09:53:37.758Z,17.00
2022-08-26T09:54:46.109Z,17.90
2022-08-26T09:56:10.022Z,14.90
2022-08-26T09:57:27.953Z,19.80
2022-08-26T09:58:38.283Z,20.60
2022-08-26T09:59:46.070Z,18.40
2022-08-26T10:00:58.476Z,18.90
2022-08-26T10:02:31.172Z,15.20
2022-08-26T10:03:40.243Z,14.30
2022-08-26T10:04:57.000Z,19.50
2022-08-26T10:06:10.040Z,17.40
2022-08-26T10:07:20.223Z,23.40
2022-08-26T10:08:39.776Z,21.00
2022-08-26T10:09:51.564Z,21.70
2022-08-26T10:11:04.609Z,19.00
2022-08-26T10:12:19.655Z,18.60
2022-08-26T10:13:36.909Z,20.90
2022-08-26T10:14:51.009Z,19.00
2022-08-26T10:16:29.795Z,17.10
2022-08-26T10:18:03.206Z,17.40
2022-08-26T10:19:22.605Z,21.90
2022-08-26T10:20:30.927Z,19.60
2022-08-26T10:22:01.991Z,18.30
2022-08-26T10:23:19.883Z,15.20
2022-08-26T10:24:50.768Z,16.60
2022-08-26T10:26:29.164Z,19.20
2022-08-26T10:27:49.626Z,19.20
2022-08-26T10:29:25.138Z,20.00
2022-08-26T10:30:39.970Z,19.50
2022-08-26T10:31:58.759Z,18.40
2022-08-26T10:33:14.121Z,24.70
2022-08-26T10:34:24.074Z,21.30
2022-08-26T10:35:38.326Z,18.30
2022-08-26T10:37:14.362Z,20.50
2022-08-26T10:38:37.722Z,17.20
2022-08-26T10:40:09.918Z,21.70
2022-08-26T10:41:21.168Z,20.60
2022-08-26T10:42:47.778Z,17.30
2022-08-26T10:44:02.460Z,17.70
2022-08-26T10:45:26.910Z,21.20
2022-08-26T10:46:53.954Z,20.30
2022-08-26T10:48:14.875Z,19.10
2022-08-26T10:49:24.071Z,18.70
2022-08-26T10:50:42.879Z,25.90
2022-08-26T10:52:12.311Z,16.50
2022-08-26T10:53:33.201Z,17.60
2022-08-26T10:55:05.764Z,19.60
2022-08-26T10:56:37.306Z,13.90
2022-08-26T10:58:26.690Z,17.90
2022-08-26T11:00:31.427Z,16.20
2022-08-26T11:01:56.031Z,17.30
2022-08-26T11:03:35.245Z,17.30
2022-08-26T11:04:51.421Z,18.60
2022-08-26T11:06:23.975Z,19.10
2022-08-26T11:07:47.640Z,18.80
2022-08-26T11:08:58.868Z,18.30
2022-08-26T11:10:13.590Z,17.00
2022-08-26T11:11:43.661Z,22.40
2022-08-26T11:12:52.285Z,19.60
2022-08-26T11:14:11.538Z,21.30
2022-08-26T11:15:25.044Z,18.20
2022-08-26T11:16:42.897Z,15.40
2022-08-26T11:18:14.226Z,19.70
2022-08-26T11:19:59.466Z,27.90
2022-08-26T11:22:04.132Z,15.40
2022-08-26T11:23:16.369Z,20.20
2022-08-26T11:25:02.030Z,16.90
2022-08-26T11:26:36.319Z,17.80
2022-08-26T11:28:01.029Z,19.10
2022-08-26T11:29:13.401Z,19.50
2022-08-26T11:30:28.298Z,17.40
2022-08-26T11:31:41.976Z,18.10
2022-08-26T11:32:54.090Z,19.80
2022-08-26T11:34:05.802Z,18.20
2022-08-26T11:35:15.688Z,25.30
2022-08-26T11:36:34.656Z,18.90
2022-08-26T11:37:42.438Z,17.90
2022-08-26T11:39:58.866Z,18.60
2022-08-26T11:41:12.441Z,17.80
2022-08-26T11:42:31.790Z,16.20
2022-08-26T11:43:44.670Z,19.80
2022-08-26T11:44:54.112Z,20.30
2022-08-26T11:46:09.253Z,18.40
2022-08-26T11:47:18.769Z,20.50
2022-08-26T11:48:37.707Z,20.30
2022-08-26T11:49:47.317Z,22.40
2022-08-26T11:51:25.310Z,20.30
2022-08-26T11:52:33.976Z,18.70
2022-08-26T11:53:44.260Z,19.40
2022-08-26T11:55:08.922Z,19.00
2022-08-26T11:56:36.588Z,21.00
2022-08-26T11:57:54.461Z,23.50
2022-08-26T11:59:03.067Z,17.50
2022-08-26T12:00:17.946Z,24.20
2022-08-26T12:01:40.849Z,19.40
2022-08-26T12:02:49.011Z,22.50
2022-08-26T12:04:00.164Z,16.70
2022-08-26T12:05:09.145Z,20.10
2022-08-26T12:06:45.027Z,19.70
2022-08-26T12:07:53.998Z,20.60
2022-08-26T12:09:36.677Z,18.60
2022-08-26T12:10:47.557Z,23.30
2022-08-26T12:12:18.255Z,22.90
2022-08-26T12:13:28.064Z,18.20
2022-08-26T12:14:37.947Z,23.50
2022-08-26T12:15:56.897Z,21.30
2022-08-26T12:17:19.391Z,19.30
2022-08-26T12:18:38.646Z,22.20
2022-08-26T12:19:45.798Z,21.70
2022-08-26T12:20:57.267Z,19.20
2022-08-26T12:22:26.699Z,19.90
2022-08-26T12:23:46.909Z,20.10
2022-08-26T12:24:55.369Z,25.10
2022-08-26T12:26:22.502Z,20.00
2022-08-26T12:29:19.695Z,22.30
2022-08-26T12:30:32.441Z,21.10
2022-08-26T12:31:46.233Z,22.00
2022-08-26T12:33:21.891Z,22.40
2022-08-26T12:34:34.334Z,26.30
2022-08-26T12:35:42.343Z,21.20
2022-08-26T12:36:55.481Z,21.80
2022-08-26T12:38:03.515Z,26.20
2022-08-26T12:39:26.104Z,21.70
2022-08-26T12:40:42.835Z,23.20
2022-08-26T12:42:33.591Z,18.30
2022-08-26T12:43:43.130Z,19.90
2022-08-26T12:45:06.354Z,19.80
2022-08-26T12:47:45.839Z,19.40
2022-08-26T12:48:54.588Z,22.90
2022-08-26T12:50:08.456Z,20.90
2022-08-26T12:51:24.468Z,28.80
2022-08-26T12:52:36.394Z,19.00
2022-08-26T12:53:45.514Z,21.60
2022-08-26T12:55:08.224Z,23.00
2022-08-26T12:57:52.360Z,22.70
2022-08-26T12:59:25.484Z,22.10
2022-08-26T13:00:38.553Z,20.70
2022-08-26T13:01:46.254Z,27.50
2022-08-26T13:02:55.225Z,24.30
2022-08-26T13:04:04.008Z,20.70
2022-08-26T13:05:37.349Z,22.00
2022-08-26T13:06:45.568Z,23.80
2022-08-26T13:08:40.882Z,24.80
2022-08-26T13:09:52.183Z,25.30
2022-08-26T13:11:06.193Z,23.10
2022-08-26T13:12:39.069Z,26.70
2022-08-26T13:13:53.598Z,25.60
2022-08-26T13:15:01.963Z,25.40
2022-08-26T13:16:10.118Z,25.60
2022-08-26T13:17:18.613Z,26.30
2022-08-26T13:18:27.690Z,25.10
2022-08-26T13:19:37.699Z,26.50
2022-08-26T13:20:45.955Z,25.20
2022-08-26T13:21:55.449Z,27.80
2022-08-26T13:23:04.587Z,24.40
2022-08-26T13:24:18.604Z,26.00
2022-08-26T13:25:29.304Z,22.50
2022-08-26T13:26:38.308Z,24.40
2022-08-26T13:27:46.790Z,24.80
2022-08-26T13:29:01.725Z,22.30
2022-08-26T13:30:11.089Z,24.90
2022-08-26T13:31:21.721Z,24.50
2022-08-26T13:32:36.367Z,21.00
2022-08-26T13:33:46.821Z,29.80
2022-08-26T13:34:56.426Z,24.00
2022-08-26T13:36:04.399Z,29.70
2022-08-26T13:37:11.837Z,30.60
2022-08-26T13:38:32.921Z,28.40
2022-08-26T13:39:43.638Z,26.70
2022-08-26T13:40:53.837Z,25.40
2022-08-26T13:42:02.676Z,31.00
2022-08-26T13:43:09.947Z,29.00
2022-08-26T13:44:19.461Z,26.00
2022-08-26T13:45:26.953Z,24.40
2022-08-26T13:46:34.343Z,27.00
2022-08-26T13:47:43.029Z,27.00
2022-08-26T13:48:54.661Z,29.10
2022-08-26T13:50:01.897Z,26.90
2022-08-26T13:51:09.975Z,29.00
2022-08-26T13:52:18.835Z,26.50
2022-08-26T13:53:40.081Z,26.60
2022-08-26T13:54:52.298Z,34.10
2022-08-26T13:56:01.853Z,20.50
2022-08-26T13:57:09.362Z,24.00
2022-08-26T13:58:17.942Z,24.00
2022-08-26T13:59:25.776Z,23.30
2022-08-26T14:00:35.156Z,26.10
2022-08-26T14:01:43.692Z,21.00
2022-08-26T14:04:01.995Z,23.90
2022-08-26T14:05:09.423Z,25.10
2022-08-26T14:06:17.701Z,24.80
2022-08-26T14:07:25.063Z,21.30
2022-08-26T14:08:34.081Z,24.20
2022-08-26T14:09:42.144Z,24.70
2022-08-26T14:12:02.805Z,23.90
2022-08-26T14:13:13.805Z,24.70
2022-08-26T14:14:21.388Z,19.30
2022-08-26T14:15:28.958Z,19.20
2022-08-26T14:16:59.004Z,19.60
2022-08-26T14:18:09.674Z,20.00
2022-08-26T14:19:19.418Z,23.10
2022-08-26T14:20:33.631Z,23.70
2022-08-26T14:21:47.182Z,19.80
2022-08-26T14:23:13.302Z,24.70
2022-08-26T14:24:30.895Z,21.80
2022-08-26T14:25:50.895Z,20.50
2022-08-26T14:27:02.161Z,22.20
2022-08-26T14:28:10.172Z,24.30
2022-08-26T14:29:18.508Z,25.90
2022-08-26T14:30:28.506Z,27.30
2022-08-26T14:31:39.573Z,27.90
2022-08-26T14:33:00.761Z,28.30
2022-08-26T14:34:14.082Z,26.10
2022-08-26T14:35:26.818Z,30.30
2022-08-26T14:36:37.282Z,27.20
2022-08-26T14:37:50.889Z,31.20
2022-08-26T14:39:18.412Z,31.70
2022-08-26T14:40:26.897Z,26.10
2022-08-26T14:41:36.285Z,32.80
2022-08-26T14:42:52.795Z,28.00
2022-08-26T14:44:07.974Z,26.60
2022-08-26T14:45:19.315Z,30.20
2022-08-26T14:46:30.954Z,28.70
2022-08-26T14:47:40.054Z,23.20
2022-08-26T14:48:52.708Z,28.70
2022-08-26T14:50:06.500Z,31.70
2022-08-26T14:51:16.360Z,31.00
2022-08-26T14:52:25.979Z,21.60
2022-08-26T14:53:54.322Z,21.60
2022-08-26T14:55:02.656Z,31.60
2022-08-26T14:56:12.674Z,27.70
2022-08-26T14:57:25.469Z,34.40
2022-08-26T14:58:34.751Z,33.40
2022-08-26T14:59:49.992Z,31.40
2022-08-26T15:01:04.434Z,27.40
2022-08-26T15:02:15.795Z,32.80
2022-08-26T15:03:42.529Z,32.80
2022-08-26T15:04:51.932Z,30.60
2022-08-26T15:05:59.692Z,24.20
2022-08-26T15:07:08.281Z,39.40
2022-08-26T15:08:23.696Z,26.40
2022-08-26T15:09:32.179Z,26.80
2022-08-26T15:10:43.211Z,25.60
2022-08-26T15:11:51.454Z,34.60
2022-08-26T15:12:59.178Z,28.80
2022-08-26T15:14:08.660Z,32.80
2022-08-26T15:15:31.257Z,26.40
2022-08-26T15:16:39.463Z,26.40
2022-08-26T15:17:47.484Z,28.60
2022-08-26T15:19:00.096Z,22.50
2022-08-26T15:20:11.984Z,28.10
2022-08-26T15:21:20.766Z,28.40
2022-08-26T15:22:29.451Z,31.40
2022-08-26T15:23:41.004Z,23.30
2022-08-26T15:24:56.015Z,28.50
2022-08-26T15:26:03.933Z,24.00
2022-08-26T15:27:20.233Z,25.90
2022-08-26T15:28:30.732Z,26.80
2022-08-26T15:29:41.446Z,27.70
2022-08-26T15:30:52.531Z,26.20
2022-08-26T15:32:02.975Z,27.80
2022-08-26T15:33:15.362Z,23.20
2022-08-26T15:34:28.953Z,23.30
2022-08-26T15:35:38.553Z,28.90
2022-08-26T15:36:57.864Z,29.30
2022-08-26T15:38:04.918Z,28.40
2022-08-26T15:39:15.094Z,27.80
2022-08-26T15:40:24.066Z,26.70
2022-08-26T15:41:34.725Z,24.80
2022-08-26T15:42:45.751Z,26.10
2022-08-26T15:44:03.791Z,23.90
2022-08-26T15:45:13.788Z,28.60
2022-08-26T15:46:36.360Z,28.20
2022-08-26T15:48:04.314Z,27.50
2022-08-26T15:49:17.604Z,24.80
2022-08-26T15:50:27.631Z,24.20
2022-08-26T15:51:45.399Z,24.00
2022-08-26T15:52:56.419Z,27.30
2022-08-26T15:54:05.043Z,26.90
2022-08-26T15:55:19.989Z,29.90
2022-08-26T15:56:34.351Z,25.20
2022-08-26T15:57:46.010Z,26.10
2022-08-26T15:58:59.105Z,21.90
2022-08-26T16:00:08.644Z,26.70
2022-08-26T16:01:27.509Z,24.40
2022-08-26T16:02:37.135Z,25.30
2022-08-26T16:03:49.808Z,19.20
2022-08-26T16:04:57.782Z,23.60
2022-08-26T16:06:08.333Z,23.40
2022-08-26T16:07:18.145Z,18.70
2022-08-26T16:08:25.967Z,23.30
2022-08-26T16:09:39.601Z,24.40
2022-08-26T16:10:51.235Z,27.10
2022-08-26T16:11:59.437Z,23.50
2022-08-26T16:13:12.939Z,24.20
2022-08-26T16:14:24.423Z,25.80